Current Weather

Los Angeles Intl

Los Angeles, California (KLAX)

Report from: Tuesday, February 27, 2024 1:53 AM PST
Current time: Tuesday, February 27, 2024 2:46 AM PST

Nearby weather – Weather history – Daily summaries
Weather forecast

Temperature13.3°C (55.9°F)
Dew point11.1°C (52.0°F)
Winds Calm
Visibility10 mi. (16.1 km)
Clouds Few clouds 800 ft. (244 m)
Ceiling: Broken clouds 2,000 ft. (610 m)
Broken clouds 7,000 ft. (2,134 m)
Altimeter29.98 in.Hg (1015 mB)
Relative humidity87 %
Density altitude-82 ft. (-25 m)
Sea-level pressure101.5 kPa (1015 mB, 29.98 in.Hg)
Remarks System requires maintenance
Automated weather observing station with precipitation discriminator
Flight conditions Marginal Visual Meteorological Conditions
Raw dataKLAX 270953Z 00000KT 10SM FEW008 BKN020 BKN070 13/11 A2998 RMK AO2 SLP152 T01330111 $
An error has occurred. This application may no longer respond until reloaded. Reload 🗙